Time;durP1;ratioP1;P1;durP2;ratioP2;P2;SDS_P1;SDS_P2;PMS_P1;PMS_P2;Temp;Humidity;BMP_temperature;BMP_pressure;BME280_temperature;BME280_humidity;BME280_pressure;Samples;Min_cycle;Max_cycle;Signal;HPM_P1;HPM_P2
2023/04/12 00:00:34;;;;;;;;;;;11.00;90.00;;;;;;2100171;28;19920;-71
2023/04/12 00:01:34;;;;;;;;;;;11.00;89.70;;;;;;2102286;28;19923;-71
2023/04/12 00:02:36;;;;;;;;;;;11.00;89.70;;;;;;2103170;28;19932;-71
2023/04/12 00:03:38;;;;;;;;;;;11.10;90.10;;;;;;2100044;28;19916;-71
2023/04/12 00:04:39;;;;;;;;;;;11.00;90.10;;;;;;2102149;28;19973;-71
2023/04/12 00:05:39;;;;;;;;;;;11.10;90.50;;;;;;2104076;28;19916;-71
2023/04/12 00:06:39;;;;;;;;;;;11.10;90.20;;;;;;2100690;28;19951;-71
2023/04/12 00:07:41;;;;;;;;;;;11.10;90.10;;;;;;2103828;28;19923;-71
2023/04/12 00:08:45;;;;;;;;;;;11.10;90.30;;;;;;2103904;28;19916;-71
2023/04/12 00:09:46;;;;;;;;;;;11.10;90.70;;;;;;2102721;28;19912;-71
2023/04/12 00:10:46;;;;;;;;;;;11.10;90.80;;;;;;2103627;28;19908;-71
2023/04/12 00:11:47;;;;;;;;;;;11.10;90.80;;;;;;2102770;28;19912;-71
2023/04/12 00:12:48;;;;;;;;;;;11.10;90.70;;;;;;2101643;28;19916;-71
2023/04/12 00:13:48;;;;;;;;;;;11.10;90.70;;;;;;2103985;28;19923;-71
2023/04/12 00:14:49;;;;;;;;;;;11.10;90.70;;;;;;2102238;28;19912;-72
2023/04/12 00:15:49;;;;;;;;;;;11.10;90.60;;;;;;2101697;28;19999;-71
2023/04/12 00:16:50;;;;;;;;;;;11.10;90.60;;;;;;2101951;28;19916;-71
2023/04/12 00:17:50;;;;;;;;;;;11.10;90.60;;;;;;2101977;28;20380;-71
2023/04/12 00:18:51;;;;;;;;;;;11.10;90.30;;;;;;2102720;28;19920;-71
2023/04/12 00:19:51;;;;;;;;;;;11.10;90.40;;;;;;2102287;28;19908;-71
2023/04/12 00:20:53;;;;;;;;;;;11.10;91.00;;;;;;2102052;28;19994;-71
2023/04/12 00:21:54;;;;;;;;;;;11.10;90.30;;;;;;2104224;28;20015;-71
2023/04/12 00:22:56;;;;;;;;;;;11.10;90.60;;;;;;2102115;28;19919;-71
2023/04/12 00:23:57;;;;;;;;;;;11.10;90.90;;;;;;2100830;28;20296;-71
2023/04/12 00:24:57;;;;;;;;;;;11.10;91.40;;;;;;2101434;28;19998;-71
2023/04/12 00:25:58;;;;;;;;;;;11.10;91.20;;;;;;2101863;28;19915;-71
2023/04/12 00:27:00;;;;;;;;;;;11.10;91.10;;;;;;2103693;28;19908;-71
2023/04/12 00:28:01;;;;;;;;;;;11.10;91.30;;;;;;2103031;28;19927;-71
2023/04/12 00:29:01;;;;;;;;;;;11.10;91.10;;;;;;2100614;28;20641;-71
2023/04/12 00:30:04;;;;;;;;;;;11.10;91.30;;;;;;2101890;28;19912;-72
2023/04/12 00:31:05;;;;;;;;;;;11.10;91.10;;;;;;2094319;28;19921;-71
2023/04/12 00:32:06;;;;;;;;;;;11.10;91.20;;;;;;2102286;28;19916;-71
2023/04/12 00:33:06;;;;;;;;;;;11.10;91.30;;;;;;2104137;28;20022;-71
2023/04/12 00:34:07;;;;;;;;;;;11.10;91.80;;;;;;2102531;28;20279;-71
2023/04/12 00:35:07;;;;;;;;;;;11.10;91.80;;;;;;2102866;28;19916;-71
2023/04/12 00:36:08;;;;;;;;;;;11.10;91.70;;;;;;2103426;28;19920;-71
2023/04/12 00:37:08;;;;;;;;;;;11.10;91.80;;;;;;2102627;28;19920;-71
2023/04/12 00:38:09;;;;;;;;;;;11.10;92.20;;;;;;2103767;28;19909;-71
2023/04/12 00:39:09;;;;;;;;;;;11.10;92.10;;;;;;2102323;28;20311;-71
2023/04/12 00:40:10;;;;;;;;;;;11.10;92.40;;;;;;2102007;28;19919;-71
2023/04/12 00:41:11;;;;;;;;;;;11.10;92.10;;;;;;2099733;28;19924;-71
2023/04/12 00:42:12;;;;;;;;;;;11.10;92.10;;;;;;2100304;28;19947;-71
2023/04/12 00:43:17;;;;;;;;;;;11.10;92.20;;;;;;2102477;28;19958;-71
2023/04/12 00:44:17;;;;;;;;;;;11.10;92.50;;;;;;2103263;28;20362;-71
2023/04/12 00:45:18;;;;;;;;;;;11.10;92.40;;;;;;2102189;28;20409;-71
2023/04/12 00:46:18;;;;;;;;;;;11.10;92.60;;;;;;2103219;28;19915;-71
2023/04/12 00:47:19;;;;;;;;;;;11.10;93.30;;;;;;2102597;28;19916;-71
2023/04/12 00:48:19;;;;;;;;;;;11.10;93.50;;;;;;2102621;28;20753;-71
2023/04/12 00:49:20;;;;;;;;;;;11.10;93.00;;;;;;2103468;28;19916;-71
2023/04/12 00:50:22;;;;;;;;;;;11.10;93.40;;;;;;2102304;28;20166;-71
2023/04/12 00:51:24;;;;;;;;;;;11.10;93.60;;;;;;2103071;28;20420;-71
2023/04/12 00:52:26;;;;;;;;;;;11.10;94.10;;;;;;2105202;28;19959;-71
2023/04/12 00:53:27;;;;;;;;;;;11.10;94.00;;;;;;2104386;28;20378;-71
2023/04/12 00:54:32;;;;;;;;;;;11.10;94.20;;;;;;2105054;28;19915;-72
2023/04/12 00:55:32;;;;;;;;;;;11.10;94.40;;;;;;2103518;28;20337;-71
2023/04/12 00:56:33;;;;;;;;;;;11.10;94.70;;;;;;2103398;28;20061;-71
2023/04/12 00:57:37;;;;;;;;;;;11.10;94.80;;;;;;2103652;28;19927;-71
2023/04/12 00:58:38;;;;;;;;;;;11.10;95.20;;;;;;2103223;28;19912;-71
2023/04/12 00:59:38;;;;;;;;;;;11.00;95.30;;;;;;2103248;28;20399;-71
2023/04/12 01:00:39;;;;;;;;;;;11.10;95.50;;;;;;2104610;28;19912;-71
2023/04/12 01:01:39;;;;;;;;;;;11.10;95.00;;;;;;2102886;28;19908;-71
2023/04/12 01:02:46;;;;;;;;;;;11.10;95.40;;;;;;2102879;28;19919;-71
2023/04/12 01:03:50;;;;;;;;;;;11.10;95.40;;;;;;2105672;28;19919;-71
2023/04/12 01:04:52;;;;;;;;;;;11.10;95.50;;;;;;2106104;28;19916;-71
2023/04/12 01:05:55;;;;;;;;;;;11.10;95.40;;;;;;2104728;28;19919;-72
2023/04/12 01:07:02;;;;;;;;;;;11.10;95.50;;;;;;2102147;28;19912;-71
2023/04/12 01:08:13;;;;;;;;;;;11.10;95.60;;;;;;2101836;28;19928;-71
2023/04/12 01:09:17;;;;;;;;;;;11.10;96.30;;;;;;2104898;28;20600;-71
2023/04/12 01:10:23;;;;;;;;;;;11.10;96.30;;;;;;2102915;28;19916;-71
2023/04/12 01:11:26;;;;;;;;;;;11.10;97.10;;;;;;2102651;28;19931;-71
2023/04/12 01:12:27;;;;;;;;;;;11.10;96.60;;;;;;2102981;28;19923;-71
2023/04/12 01:13:31;;;;;;;;;;;11.10;97.50;;;;;;2104551;28;19951;-71
2023/04/12 01:14:39;;;;;;;;;;;11.10;97.30;;;;;;2102702;28;19916;-71
2023/04/12 01:16:03;;;;;;;;;;;11.10;97.50;;;;;;2104394;28;19958;-71
2023/04/12 01:17:06;;;;;;;;;;;11.10;98.30;;;;;;2093392;28;20397;-71
2023/04/12 01:18:18;;;;;;;;;;;11.10;96.90;;;;;;2101818;28;20481;-71
2023/04/12 01:19:35;;;;;;;;;;;11.10;99.40;;;;;;2102409;28;20003;-72
2023/04/12 01:20:47;;;;;;;;;;;11.10;99.90;;;;;;2102989;28;19913;-71
2023/04/12 01:21:57;;;;;;;;;;;11.10;99.90;;;;;;2104547;28;19912;-71
2023/04/12 01:22:58;;;;;;;;;;;11.10;99.90;;;;;;2103897;28;20069;-71
2023/04/12 01:24:01;;;;;;;;;;;11.10;99.90;;;;;;2101686;28;19993;-71
2023/04/12 01:25:04;;;;;;;;;;;11.00;99.90;;;;;;2104441;28;20457;-71
2023/04/12 01:26:34;;;;;;;;;;;11.00;99.90;;;;;;2103638;28;19916;-71
2023/04/12 01:27:47;;;;;;;;;;;11.10;99.90;;;;;;2101576;28;19916;-71
2023/04/12 01:28:50;;;;;;;;;;;11.00;99.90;;;;;;2102428;28;19986;-71
2023/04/12 01:29:51;;;;;;;;;;;11.10;99.90;;;;;;2106881;28;20409;-72
2023/04/12 01:30:53;;;;;;;;;;;11.00;99.90;;;;;;2100986;28;20279;-72
2023/04/12 01:31:56;;;;;;;;;;;11.00;99.90;;;;;;2103600;28;19916;-71
2023/04/12 01:32:58;;;;;;;;;;;11.00;99.90;;;;;;2103084;28;20003;-71
2023/04/12 01:34:00;;;;;;;;;;;11.00;99.90;;;;;;2103847;28;19916;-71
2023/04/12 01:35:02;;;;;;;;;;;11.00;99.90;;;;;;2104292;28;19934;-71
2023/04/12 01:36:10;;;;;;;;;;;11.00;99.90;;;;;;2101904;28;19959;-71
2023/04/12 01:37:11;;;;;;;;;;;11.00;99.90;;;;;;2099204;28;19916;-71
2023/04/12 01:38:12;;;;;;;;;;;11.00;99.90;;;;;;2093212;28;19952;-71
2023/04/12 01:39:13;;;;;;;;;;;11.00;99.90;;;;;;2103761;28;19908;-71
2023/04/12 01:40:13;;;;;;;;;;;11.00;99.90;;;;;;2102685;28;20102;-71
2023/04/12 01:41:14;;;;;;;;;;;11.00;99.90;;;;;;2102147;28;19916;-71
2023/04/12 01:42:19;;;;;;;;;;;11.00;99.90;;;;;;2105135;28;19912;-71
2023/04/12 01:43:19;;;;;;;;;;;11.00;99.90;;;;;;2103205;28;19914;-71
2023/04/12 01:44:20;;;;;;;;;;;11.00;99.90;;;;;;2103018;28;20012;-71
2023/04/12 01:45:21;;;;;;;;;;;11.00;99.90;;;;;;2103526;28;20607;-71
2023/04/12 01:46:22;;;;;;;;;;;11.00;99.90;;;;;;2103700;28;19931;-72
2023/04/12 01:47:23;;;;;;;;;;;11.00;99.90;;;;;;2104101;28;19923;-71
2023/04/12 01:48:23;;;;;;;;;;;11.00;99.90;;;;;;2104621;28;20367;-71
2023/04/12 01:49:26;;;;;;;;;;;11.00;99.90;;;;;;2105436;28;19912;-71
2023/04/12 01:50:45;;;;;;;;;;;11.00;99.90;;;;;;2101987;28;19962;-71
2023/04/12 01:51:54;;;;;;;;;;;11.00;99.90;;;;;;2103064;28;19973;-71
2023/04/12 01:53:03;;;;;;;;;;;10.90;99.90;;;;;;2102064;28;19931;-71
2023/04/12 01:54:10;;;;;;;;;;;10.90;99.90;;;;;;2103140;28;19912;-71
2023/04/12 01:55:12;;;;;;;;;;;11.00;99.90;;;;;;2103083;28;19908;-71
2023/04/12 01:56:14;;;;;;;;;;;11.00;99.90;;;;;;2112101;28;20350;-71
2023/04/12 01:57:15;;;;;;;;;;;11.00;99.90;;;;;;2110667;28;19962;-71
2023/04/12 01:58:18;;;;;;;;;;;10.90;99.90;;;;;;2104383;28;19916;-71
2023/04/12 01:59:20;;;;;;;;;;;11.00;99.90;;;;;;2104063;28;19919;-71
2023/04/12 02:00:21;;;;;;;;;;;10.90;99.90;;;;;;2102977;28;19912;-71
2023/04/12 02:01:22;;;;;;;;;;;11.00;99.90;;;;;;2103007;28;19916;-71
2023/04/12 02:02:23;;;;;;;;;;;11.00;99.90;;;;;;2103561;28;19946;-71
2023/04/12 02:03:24;;;;;;;;;;;10.90;99.90;;;;;;2102494;28;19920;-71
2023/04/12 02:04:26;;;;;;;;;;;10.90;99.90;;;;;;2103392;28;19965;-71
2023/04/12 02:05:27;;;;;;;;;;;10.90;99.90;;;;;;2102581;28;19912;-71
2023/04/12 02:06:27;;;;;;;;;;;10.90;99.90;;;;;;2094748;28;20592;-71
2023/04/12 02:07:28;;;;;;;;;;;10.90;99.90;;;;;;2094203;28;19974;-71
2023/04/12 02:08:28;;;;;;;;;;;10.90;99.90;;;;;;2101810;28;19938;-72
2023/04/12 02:09:29;;;;;;;;;;;10.90;99.90;;;;;;2104398;28;19919;-72
2023/04/12 02:10:30;;;;;;;;;;;10.90;99.90;;;;;;2102898;28;20007;-71
2023/04/12 02:11:31;;;;;;;;;;;10.80;99.90;;;;;;2102489;28;19919;-72
2023/04/12 02:12:31;;;;;;;;;;;10.80;99.90;;;;;;2101850;28;19916;-71
2023/04/12 02:13:31;;;;;;;;;;;10.90;99.90;;;;;;2103876;28;19908;-71
2023/04/12 02:14:32;;;;;;;;;;;10.90;99.90;;;;;;2103004;28;19916;-71
2023/04/12 02:15:33;;;;;;;;;;;10.90;99.90;;;;;;2104487;28;19912;-71
2023/04/12 02:16:33;;;;;;;;;;;10.90;99.90;;;;;;2103763;28;20683;-72
2023/04/12 02:17:37;;;;;;;;;;;10.90;99.90;;;;;;2103349;28;19921;-72
2023/04/12 02:18:39;;;;;;;;;;;10.90;99.90;;;;;;2102991;28;20754;-71
2023/04/12 02:19:40;;;;;;;;;;;10.80;99.90;;;;;;2103308;28;19916;-71
2023/04/12 02:20:40;;;;;;;;;;;10.80;99.90;;;;;;2103452;28;19912;-71
2023/04/12 02:21:42;;;;;;;;;;;10.80;99.90;;;;;;2104058;28;20325;-71
2023/04/12 02:22:42;;;;;;;;;;;10.80;99.90;;;;;;2102086;28;19999;-71
2023/04/12 02:23:43;;;;;;;;;;;10.80;99.90;;;;;;2103364;28;20372;-72
2023/04/12 02:24:43;;;;;;;;;;;10.80;99.90;;;;;;2102386;28;19912;-71
2023/04/12 02:25:45;;;;;;;;;;;10.80;99.90;;;;;;2105643;28;20076;-71
2023/04/12 02:26:48;;;;;;;;;;;10.80;99.90;;;;;;2105841;28;19994;-71
2023/04/12 02:27:49;;;;;;;;;;;10.80;99.90;;;;;;2104158;28;19963;-71
2023/04/12 02:28:51;;;;;;;;;;;10.80;99.90;;;;;;2103479;28;19912;-72
2023/04/12 02:29:51;;;;;;;;;;;10.70;99.90;;;;;;2103136;28;19912;-71
2023/04/12 02:30:52;;;;;;;;;;;10.70;99.90;;;;;;2104652;28;19918;-71
2023/04/12 02:31:53;;;;;;;;;;;10.70;99.90;;;;;;2104109;28;19912;-71
2023/04/12 02:32:54;;;;;;;;;;;10.70;99.90;;;;;;2102455;28;20445;-72
2023/04/12 02:33:55;;;;;;;;;;;10.70;99.90;;;;;;2093471;28;19928;-72
2023/04/12 02:34:57;;;;;;;;;;;10.70;99.90;;;;;;2100437;28;20063;-71
2023/04/12 02:36:01;;;;;;;;;;;10.70;99.90;;;;;;2103734;28;19928;-71
2023/04/12 02:37:02;;;;;;;;;;;10.70;99.90;;;;;;2098412;28;20031;-72
2023/04/12 02:38:06;;;;;;;;;;;10.70;99.90;;;;;;2103913;28;19920;-71
2023/04/12 02:39:07;;;;;;;;;;;10.60;99.90;;;;;;2104820;28;19916;-71
2023/04/12 02:40:10;;;;;;;;;;;10.60;99.90;;;;;;2102798;28;19914;-71
2023/04/12 02:41:15;;;;;;;;;;;10.60;99.90;;;;;;2102872;28;19912;-72
2023/04/12 02:42:16;;;;;;;;;;;10.60;99.90;;;;;;2103570;28;19908;-71
2023/04/12 02:43:16;;;;;;;;;;;10.60;99.90;;;;;;2101936;28;20891;-71
2023/04/12 02:44:17;;;;;;;;;;;10.60;99.90;;;;;;2103022;28;19999;-71
2023/04/12 02:45:17;;;;;;;;;;;10.60;99.90;;;;;;2102294;28;19912;-71
2023/04/12 02:46:20;;;;;;;;;;;10.50;99.90;;;;;;2103632;28;20002;-71
2023/04/12 02:47:20;;;;;;;;;;;10.50;99.90;;;;;;2104093;28;19912;-71
2023/04/12 02:48:21;;;;;;;;;;;10.50;99.90;;;;;;2103496;28;19947;-71
2023/04/12 02:49:21;;;;;;;;;;;10.50;99.90;;;;;;2102731;28;20283;-71
2023/04/12 02:50:22;;;;;;;;;;;10.50;99.90;;;;;;2101892;28;19912;-71
2023/04/12 02:51:22;;;;;;;;;;;10.50;99.90;;;;;;2102421;28;20426;-71
2023/04/12 02:52:23;;;;;;;;;;;10.50;99.90;;;;;;2103166;28;19919;-71
2023/04/12 02:53:23;;;;;;;;;;;10.50;99.90;;;;;;2102428;28;19922;-71
2023/04/12 02:54:24;;;;;;;;;;;10.50;99.90;;;;;;2103533;28;19943;-72
2023/04/12 02:55:24;;;;;;;;;;;10.50;99.90;;;;;;2102608;28;19920;-71
2023/04/12 02:56:25;;;;;;;;;;;10.50;99.90;;;;;;2103888;28;20553;-71
2023/04/12 02:57:25;;;;;;;;;;;10.50;99.90;;;;;;2103319;28;20498;-71
2023/04/12 02:58:26;;;;;;;;;;;10.50;99.90;;;;;;2102765;28;20090;-72
2023/04/12 02:59:27;;;;;;;;;;;10.50;99.90;;;;;;2101310;28;19988;-71
2023/04/12 03:00:28;;;;;;;;;;;10.50;99.90;;;;;;2101709;28;20007;-71
2023/04/12 03:01:28;;;;;;;;;;;10.50;99.90;;;;;;2101700;28;19920;-71
2023/04/12 03:02:29;;;;;;;;;;;10.50;99.90;;;;;;2102175;28;19920;-71
2023/04/12 03:03:30;;;;;;;;;;;10.50;99.90;;;;;;2103520;28;20317;-71
2023/04/12 03:04:31;;;;;;;;;;;10.50;99.90;;;;;;2101905;28;19919;-71
2023/04/12 03:05:31;;;;;;;;;;;10.50;99.90;;;;;;2101828;28;20282;-71
2023/04/12 03:06:32;;;;;;;;;;;10.50;99.90;;;;;;2105795;28;20064;-71
2023/04/12 03:07:32;;;;;;;;;;;10.50;99.90;;;;;;2095016;28;19913;-71
2023/04/12 03:08:33;;;;;;;;;;;10.50;99.90;;;;;;2101492;28;19916;-71
2023/04/12 03:09:33;;;;;;;;;;;10.50;99.90;;;;;;2103726;28;19915;-71
2023/04/12 03:10:34;;;;;;;;;;;10.50;99.90;;;;;;2102820;28;19989;-71
2023/04/12 03:11:34;;;;;;;;;;;10.50;99.90;;;;;;2104324;28;20688;-71
2023/04/12 03:12:35;;;;;;;;;;;10.50;99.90;;;;;;2103209;28;19928;-71
2023/04/12 03:13:35;;;;;;;;;;;10.50;99.90;;;;;;2102562;28;20396;-71
2023/04/12 03:14:36;;;;;;;;;;;10.50;99.90;;;;;;2103238;28;19916;-71
2023/04/12 03:15:36;;;;;;;;;;;10.50;99.90;;;;;;2103036;28;20275;-71
2023/04/12 03:16:37;;;;;;;;;;;10.50;99.90;;;;;;2103056;28;19915;-71
2023/04/12 03:17:37;;;;;;;;;;;10.50;99.90;;;;;;2102905;28;19912;-71
2023/04/12 03:18:38;;;;;;;;;;;10.50;99.90;;;;;;2100941;28;20374;-71
2023/04/12 03:19:38;;;;;;;;;;;10.50;99.90;;;;;;2101561;28;20009;-71
2023/04/12 03:20:40;;;;;;;;;;;10.50;99.90;;;;;;2109735;28;20041;-71
2023/04/12 03:21:41;;;;;;;;;;;10.50;99.90;;;;;;2103291;28;20375;-71
2023/04/12 03:22:41;;;;;;;;;;;10.50;99.90;;;;;;2102629;28;19928;-72
2023/04/12 03:23:42;;;;;;;;;;;10.40;99.90;;;;;;2103097;28;19954;-71
2023/04/12 03:24:45;;;;;;;;;;;10.40;99.90;;;;;;2104197;28;20459;-71
2023/04/12 03:25:45;;;;;;;;;;;10.40;99.90;;;;;;2101434;28;20002;-71
2023/04/12 03:26:46;;;;;;;;;;;10.40;99.90;;;;;;2101149;28;19916;-72
2023/04/12 03:27:46;;;;;;;;;;;10.40;99.90;;;;;;2104158;28;19990;-72
2023/04/12 03:28:47;;;;;;;;;;;10.40;99.90;;;;;;2102916;28;19916;-71
2023/04/12 03:29:47;;;;;;;;;;;10.40;99.90;;;;;;2102667;28;19968;-71
2023/04/12 03:30:47;;;;;;;;;;;10.40;99.90;;;;;;2103012;28;20272;-71
2023/04/12 03:31:48;;;;;;;;;;;10.40;99.90;;;;;;2103564;28;19915;-71
2023/04/12 03:32:48;;;;;;;;;;;10.40;99.90;;;;;;2102844;28;20306;-71
2023/04/12 03:33:49;;;;;;;;;;;10.40;99.90;;;;;;2103056;28;20314;-71
2023/04/12 03:34:50;;;;;;;;;;;10.40;99.90;;;;;;2103252;28;20018;-71
2023/04/12 03:35:50;;;;;;;;;;;10.40;99.90;;;;;;2103995;28;19951;-72
2023/04/12 03:36:51;;;;;;;;;;;10.40;99.90;;;;;;2101497;28;20484;-71
2023/04/12 03:37:51;;;;;;;;;;;10.30;99.90;;;;;;2103415;28;19918;-71
2023/04/12 03:38:52;;;;;;;;;;;10.30;99.90;;;;;;2101814;28;19994;-71
2023/04/12 03:39:52;;;;;;;;;;;10.30;99.90;;;;;;2101714;28;19965;-71
2023/04/12 03:40:53;;;;;;;;;;;10.30;99.90;;;;;;2103276;28;19916;-71
2023/04/12 03:41:53;;;;;;;;;;;10.30;99.90;;;;;;2101972;28;19908;-71
2023/04/12 03:42:54;;;;;;;;;;;10.30;99.90;;;;;;2102904;28;19974;-71
2023/04/12 03:43:54;;;;;;;;;;;10.30;99.90;;;;;;2100285;28;19912;-71
2023/04/12 03:44:55;;;;;;;;;;;10.20;99.90;;;;;;2099041;28;19912;-71
2023/04/12 03:45:55;;;;;;;;;;;10.30;99.90;;;;;;2103813;28;19916;-71
2023/04/12 03:46:56;;;;;;;;;;;10.30;99.90;;;;;;2102656;28;19916;-71
2023/04/12 03:47:56;;;;;;;;;;;10.20;99.90;;;;;;2102479;28;19916;-71
2023/04/12 03:48:57;;;;;;;;;;;10.20;99.90;;;;;;2101958;28;20007;-71
2023/04/12 03:50:02;;;;;;;;;;;10.20;99.90;;;;;;2101499;28;19912;-71
2023/04/12 03:51:06;;;;;;;;;;;10.20;99.90;;;;;;2101752;28;19916;-71
2023/04/12 03:52:07;;;;;;;;;;;10.20;99.90;;;;;;2102588;28;20305;-72
2023/04/12 03:53:07;;;;;;;;;;;10.20;99.90;;;;;;2103642;28;20221;-71
2023/04/12 03:54:09;;;;;;;;;;;10.20;99.90;;;;;;2103319;28;19989;-71
2023/04/12 03:55:10;;;;;;;;;;;10.20;99.90;;;;;;2103285;28;20544;-71
2023/04/12 03:56:11;;;;;;;;;;;10.20;99.90;;;;;;2101323;28;19920;-71
2023/04/12 03:57:12;;;;;;;;;;;10.20;99.90;;;;;;2103267;28;19916;-71
2023/04/12 03:58:12;;;;;;;;;;;10.20;99.90;;;;;;2102219;28;19916;-71
2023/04/12 03:59:13;;;;;;;;;;;10.20;99.90;;;;;;2101403;28;19909;-71
2023/04/12 04:00:14;;;;;;;;;;;10.20;99.90;;;;;;2102262;28;20290;-71
2023/04/12 04:01:16;;;;;;;;;;;10.20;99.90;;;;;;2101582;28;20282;-72
2023/04/12 04:02:17;;;;;;;;;;;10.20;99.90;;;;;;2103579;28;19918;-71
2023/04/12 04:03:17;;;;;;;;;;;10.20;99.90;;;;;;2101994;28;20598;-71
2023/04/12 04:04:18;;;;;;;;;;;10.20;99.90;;;;;;2103953;28;19920;-71
2023/04/12 04:05:18;;;;;;;;;;;10.20;99.90;;;;;;2102791;28;20013;-71
2023/04/12 04:06:19;;;;;;;;;;;10.20;99.90;;;;;;2101775;28;19936;-71
2023/04/12 04:07:20;;;;;;;;;;;10.20;99.90;;;;;;2101912;28;20358;-71
2023/04/12 04:08:21;;;;;;;;;;;10.20;99.90;;;;;;2103898;28;19908;-71
2023/04/12 04:09:21;;;;;;;;;;;10.20;99.90;;;;;;2102106;28;19927;-71
2023/04/12 04:10:21;;;;;;;;;;;10.20;99.90;;;;;;2102008;28;20359;-71
2023/04/12 04:11:23;;;;;;;;;;;10.20;99.90;;;;;;2099286;28;19942;-71
2023/04/12 04:12:23;;;;;;;;;;;10.20;99.90;;;;;;2100500;28;19912;-71
2023/04/12 04:13:24;;;;;;;;;;;10.20;99.90;;;;;;2103483;28;19923;-71
2023/04/12 04:14:26;;;;;;;;;;;10.20;99.90;;;;;;2100979;28;20360;-71
2023/04/12 04:15:27;;;;;;;;;;;10.20;99.90;;;;;;2104164;28;19919;-71
2023/04/12 04:16:28;;;;;;;;;;;10.20;99.90;;;;;;2102033;28;20694;-71
2023/04/12 04:17:29;;;;;;;;;;;10.20;99.90;;;;;;2099174;28;20360;-71
2023/04/12 04:18:30;;;;;;;;;;;10.20;99.90;;;;;;2102371;28;20324;-71
2023/04/12 04:19:30;;;;;;;;;;;10.20;99.90;;;;;;2101080;28;20007;-71
2023/04/12 04:20:31;;;;;;;;;;;10.20;99.90;;;;;;2101600;28;20287;-71
2023/04/12 04:21:32;;;;;;;;;;;10.20;99.90;;;;;;2103690;28;19923;-71
2023/04/12 04:22:33;;;;;;;;;;;10.20;99.90;;;;;;2103858;28;19935;-71
2023/04/12 04:23:37;;;;;;;;;;;10.20;99.90;;;;;;2102388;28;19913;-71
2023/04/12 04:24:37;;;;;;;;;;;10.20;99.90;;;;;;2101824;28;19916;-72
2023/04/12 04:25:38;;;;;;;;;;;10.20;99.90;;;;;;2104474;28;19995;-71
2023/04/12 04:26:39;;;;;;;;;;;10.20;99.90;;;;;;2103120;28;19923;-71
2023/04/12 04:27:40;;;;;;;;;;;10.20;99.90;;;;;;2102937;28;19923;-71
2023/04/12 04:28:43;;;;;;;;;;;10.20;99.90;;;;;;2110001;28;20276;-71
2023/04/12 04:29:44;;;;;;;;;;;10.20;99.90;;;;;;2110537;28;20002;-71
2023/04/12 04:30:47;;;;;;;;;;;10.20;99.90;;;;;;2101874;28;19912;-71
2023/04/12 04:31:48;;;;;;;;;;;10.20;99.90;;;;;;2102483;28;19916;-71
2023/04/12 04:32:49;;;;;;;;;;;10.20;99.90;;;;;;2101395;28;19920;-72
2023/04/12 04:33:50;;;;;;;;;;;10.20;99.90;;;;;;2104331;28;19921;-71
2023/04/12 04:34:51;;;;;;;;;;;10.20;99.90;;;;;;2103007;28;19916;-71
2023/04/12 04:35:54;;;;;;;;;;;10.20;99.90;;;;;;2102346;28;19920;-71
2023/04/12 04:36:56;;;;;;;;;;;10.20;99.90;;;;;;2100486;28;19936;-71
2023/04/12 04:37:57;;;;;;;;;;;10.20;99.90;;;;;;2101376;28;19924;-71
2023/04/12 04:38:57;;;;;;;;;;;10.20;99.90;;;;;;2105109;28;19923;-71
2023/04/12 04:39:58;;;;;;;;;;;10.20;99.90;;;;;;2104504;28;20021;-72
2023/04/12 04:41:01;;;;;;;;;;;10.20;99.90;;;;;;2103298;28;19912;-71
2023/04/12 04:42:05;;;;;;;;;;;10.20;99.90;;;;;;2104585;28;19948;-71
2023/04/12 04:43:05;;;;;;;;;;;10.20;99.90;;;;;;2102316;28;19999;-71
2023/04/12 04:44:09;;;;;;;;;;;10.20;99.90;;;;;;2103211;28;19926;-71
2023/04/12 04:45:13;;;;;;;;;;;10.20;99.90;;;;;;2103856;28;19938;-71
2023/04/12 04:46:13;;;;;;;;;;;10.20;99.90;;;;;;2100913;28;19921;-72
2023/04/12 04:47:14;;;;;;;;;;;10.20;99.90;;;;;;2100458;28;20014;-71
2023/04/12 04:48:15;;;;;;;;;;;10.20;99.90;;;;;;2095721;28;19930;-72
2023/04/12 04:49:15;;;;;;;;;;;10.20;99.90;;;;;;2101851;28;19923;-71
2023/04/12 04:50:16;;;;;;;;;;;10.20;99.90;;;;;;2104588;28;19916;-71
2023/04/12 04:51:16;;;;;;;;;;;10.20;99.90;;;;;;2103094;28;20469;-72
2023/04/12 04:52:17;;;;;;;;;;;10.20;99.90;;;;;;2103286;28;19927;-71
2023/04/12 04:53:18;;;;;;;;;;;10.20;99.90;;;;;;2105107;28;19963;-71
2023/04/12 04:54:19;;;;;;;;;;;10.20;99.90;;;;;;2099888;28;20023;-72
2023/04/12 04:55:20;;;;;;;;;;;10.20;99.90;;;;;;2102973;28;19912;-72
2023/04/12 04:56:23;;;;;;;;;;;10.20;99.90;;;;;;2104588;28;20375;-71
2023/04/12 04:57:25;;;;;;;;;;;10.20;99.90;;;;;;2101948;28;19916;-71
2023/04/12 04:58:26;;;;;;;;;;;10.20;99.90;;;;;;2104595;28;19916;-71
2023/04/12 04:59:26;;;;;;;;;;;10.20;99.90;;;;;;2101427;28;19968;-72
2023/04/12 05:00:27;;;;;;;;;;;10.20;99.90;;;;;;2101880;28;19920;-72
2023/04/12 05:01:28;;;;;;;;;;;10.30;99.90;;;;;;2104374;28;19959;-72
2023/04/12 05:02:28;;;;;;;;;;;10.20;99.90;;;;;;2104187;28;19912;-71
2023/04/12 05:03:29;;;;;;;;;;;10.30;99.90;;;;;;2103006;28;19970;-72
2023/04/12 05:04:30;;;;;;;;;;;10.20;99.90;;;;;;2105083;28;20002;-72
2023/04/12 05:05:31;;;;;;;;;;;10.20;99.90;;;;;;2103932;28;20364;-72
2023/04/12 05:06:31;;;;;;;;;;;10.20;99.90;;;;;;2103639;28;19916;-72
2023/04/12 05:07:32;;;;;;;;;;;10.20;99.90;;;;;;2104615;28;20011;-72
2023/04/12 05:08:33;;;;;;;;;;;10.20;99.90;;;;;;2103799;28;19958;-71
2023/04/12 05:09:33;;;;;;;;;;;10.20;99.90;;;;;;2103661;28;19912;-71
2023/04/12 05:10:34;;;;;;;;;;;10.20;99.90;;;;;;2103944;28;19919;-71
2023/04/12 05:11:34;;;;;;;;;;;10.20;99.90;;;;;;2103540;28;20777;-72
2023/04/12 05:12:35;;;;;;;;;;;10.20;99.90;;;;;;2098403;28;19912;-72
2023/04/12 05:13:36;;;;;;;;;;;10.20;99.90;;;;;;2101155;28;19975;-71
2023/04/12 05:14:38;;;;;;;;;;;10.20;99.90;;;;;;2102714;28;19947;-71
2023/04/12 05:15:39;;;;;;;;;;;10.20;99.90;;;;;;2105515;28;19916;-72
2023/04/12 05:16:40;;;;;;;;;;;10.20;99.90;;;;;;2104960;28;19919;-71
2023/04/12 05:17:40;;;;;;;;;;;10.20;99.90;;;;;;2103603;28;20272;-72
2023/04/12 05:18:40;;;;;;;;;;;10.30;99.90;;;;;;2104727;28;19928;-71
2023/04/12 05:19:42;;;;;;;;;;;10.30;99.90;;;;;;2104260;28;20015;-71
2023/04/12 05:20:43;;;;;;;;;;;10.30;99.90;;;;;;2105048;28;20003;-72
2023/04/12 05:21:43;;;;;;;;;;;10.30;99.90;;;;;;2104395;28;19908;-71
2023/04/12 05:22:44;;;;;;;;;;;10.30;99.90;;;;;;2103203;28;19946;-71
2023/04/12 05:23:45;;;;;;;;;;;10.30;99.90;;;;;;2104174;28;19915;-71
2023/04/12 05:24:46;;;;;;;;;;;10.30;99.90;;;;;;2104296;28;20289;-72
2023/04/12 05:25:48;;;;;;;;;;;10.30;99.90;;;;;;2104464;28;19912;-72
2023/04/12 05:26:49;;;;;;;;;;;10.30;99.90;;;;;;2102992;28;19916;-72
2023/04/12 05:27:49;;;;;;;;;;;10.30;99.90;;;;;;2103778;28;19912;-72
2023/04/12 05:28:50;;;;;;;;;;;10.30;99.90;;;;;;2104369;28;19951;-71
2023/04/12 05:29:51;;;;;;;;;;;10.30;99.90;;;;;;2103060;28;20423;-71
2023/04/12 05:30:51;;;;;;;;;;;10.30;99.90;;;;;;2103443;28;19967;-72
2023/04/12 05:31:52;;;;;;;;;;;10.30;99.90;;;;;;2103549;28;20663;-71
2023/04/12 05:32:52;;;;;;;;;;;10.30;99.90;;;;;;2101713;28;19925;-71
2023/04/12 05:33:56;;;;;;;;;;;10.30;99.90;;;;;;2103649;28;20291;-72
2023/04/12 05:34:56;;;;;;;;;;;10.20;99.90;;;;;;2104367;28;19965;-71
2023/04/12 05:35:57;;;;;;;;;;;10.20;99.90;;;;;;2103275;28;19961;-72
2023/04/12 05:36:58;;;;;;;;;;;10.20;99.90;;;;;;2102750;28;20568;-71
2023/04/12 05:37:59;;;;;;;;;;;10.20;99.90;;;;;;2104019;28;20661;-71
2023/04/12 05:39:00;;;;;;;;;;;10.20;99.90;;;;;;2103148;28;19916;-72
2023/04/12 05:40:00;;;;;;;;;;;10.20;99.90;;;;;;2104120;28;19912;-71
2023/04/12 05:41:03;;;;;;;;;;;10.20;99.90;;;;;;2102742;28;19999;-72
2023/04/12 05:42:04;;;;;;;;;;;10.20;99.90;;;;;;2104422;28;19912;-72
2023/04/12 05:43:04;;;;;;;;;;;10.20;99.90;;;;;;2105156;28;19916;-71
2023/04/12 05:44:05;;;;;;;;;;;10.10;99.90;;;;;;2102961;28;20011;-72
2023/04/12 05:45:05;;;;;;;;;;;10.10;99.90;;;;;;2103953;28;19969;-71
2023/04/12 05:46:10;;;;;;;;;;;10.10;99.90;;;;;;2103974;28;19916;-71
2023/04/12 05:47:10;;;;;;;;;;;10.20;99.90;;;;;;2101556;28;21170;-71
2023/04/12 05:48:12;;;;;;;;;;;10.10;99.90;;;;;;2104632;28;19962;-72
2023/04/12 05:49:13;;;;;;;;;;;10.10;99.90;;;;;;2103609;28;20034;-72
2023/04/12 05:50:13;;;;;;;;;;;10.10;99.90;;;;;;2103664;28;19916;-71
2023/04/12 05:51:14;;;;;;;;;;;10.10;99.90;;;;;;2104528;28;20057;-71
2023/04/12 05:52:14;;;;;;;;;;;10.10;99.90;;;;;;2101957;28;19939;-72
2023/04/12 05:53:15;;;;;;;;;;;10.10;99.90;;;;;;2104585;28;20368;-71
2023/04/12 05:54:19;;;;;;;;;;;10.10;99.90;;;;;;2104605;28;20023;-72
2023/04/12 05:55:21;;;;;;;;;;;10.10;99.90;;;;;;2103715;28;20352;-72
2023/04/12 05:56:21;;;;;;;;;;;10.00;99.90;;;;;;2105996;28;19923;-72
2023/04/12 05:57:22;;;;;;;;;;;10.00;99.90;;;;;;2103447;28;19995;-71
2023/04/12 05:58:22;;;;;;;;;;;10.00;99.90;;;;;;2102529;28;19913;-71